Карточка аэропорта URWA

Внимание!
Информация на этой странице в стадии наполнения.
Если вы не увидели какой-то информации, или заметили неточность - пожалуйста сообщите нам!
Спасибо!
Команда RU-STAFF
Название аэропортаАстрахань
Название аэропорта (англ.)Astrakhan
Превышение-65 ft. (-19.8 m.)
Координаты46°16.998', 48°0.38399999999996'
Высота перехода3000 ft
Эшелон переходаFL50
Коды ответчика1010-1017
Зона ОрВДРостов-на-Дону РПИ (URRV)
Данные METARURWA 150800Z 01004MPS 330V050 9999 SCT/// 34/15 Q1008 R27/010070 NOSIG RMK QFE758/1011
Проноз погоды (TAF)URWA 150456Z 1506/1515 04003G11MPS 9999 SCT040 TEMPO 1506/1509 36003G08MPS TEMPO 1509/1515 SCT030CB BECMG 1512/1514 18003G11MPS
NOTAMshow/hide NOTAM
AWOS   TABLE

Информация о ВПП

ВПП Длина ВПП (м.) Покрытие Курс ВПП Частота ILS
273200Асфальтобетон269110.5
093200Асфальтобетон89110.3
111950Трава113 
291950Трава293 

Диспетчерские позиции

Позывной Наименование органа УВД Частота
URWA_TWRАстрахань-Вышка118.6
URWA_R_APPАстрахань-Круг120.6
URWA_APPАстрахань-Подход126.0



Спутниковое изображение